PWSweather.com
Personal Weather Stations
Station Observations

SkegnessGB

Lat: 53.147585, Lon: 0.345774

Elevation: 18

Station Type: Fine Offset WH3080

http://www.skegnessweather.info/

High Low Average
Temperature 41.5°F5.3°C 28.6°F-1.9°C 34.1°F1.2°C
Dew Point 33.2°F0.7°C 25.7°F-3.5°C 29.3°F-1.5°C
Winds 15.7 mph 25.3 kmh 3.9 mph 6.3 kmh 7.0 mph SW11.3 kmh SW
Wind Gusts 16.0 mph25.7 kmh 4.2 mph6.8 kmh 9.0 mph14.5 kmh
Humidity 92% 70% 83%
Pressure 29.86 in1011.2 mb 29.72 in1006.4 mb -
Precipitation 0.00 in0.0 mm - -
Hour Temp Dew Point Humidity Winds Wind Gusts Pressure Precip Precip Rate Daily Precip Total
12:00 AM 31.8°F-0.1°C 26.7°F-2.9°C 81% 6.3 mph W10.1 kmh W 10.1 mph16.3 kmh 29.73 in1006.8 mb 0.00 in0.0 mm 0.00 in0.0 mm 0.00 in0.0 mm
12:10 AM 31.6°F-0.2°C 26.2°F-3.2°C 80% 6.0 mph SSW9.7 kmh SSW 6.6 mph10.6 kmh 29.73 in1006.8 mb 0.00 in0.0 mm 0.00 in0.0 mm 0.00 in0.0 mm
12:20 AM 31.6°F-0.2°C 26.2°F-3.2°C 80% 6.2 mph W10.0 kmh W 6.6 mph10.6 kmh 29.74 in1007.1 mb 0.00 in0.0 mm 0.00 in0.0 mm 0.00 in0.0 mm
12:30 AM 31.5°F-0.3°C 26.3°F-3.2°C 81% 6.2 mph SSW10.0 kmh SSW 8.4 mph13.5 kmh 29.74 in1007.1 mb 0.00 in0.0 mm 0.00 in0.0 mm 0.00 in0.0 mm
12:40 AM 31.5°F-0.3°C 26.3°F-3.2°C 81% 7.2 mph SSE11.6 kmh SSE 9.1 mph14.6 kmh 29.74 in1007.1 mb 0.00 in0.0 mm 0.00 in0.0 mm 0.00 in0.0 mm
12:50 AM 31.5°F-0.3°C 26.3°F-3.2°C 81% 6.1 mph S9.8 kmh S 8.4 mph13.5 kmh 29.74 in1007.1 mb 0.00 in0.0 mm 0.00 in0.0 mm 0.00 in0.0 mm
01:00 AM 31.3°F-0.4°C 26.1°F-3.3°C 81% 7.3 mph SSW11.7 kmh SSW 10.1 mph16.3 kmh 29.75 in1007.5 mb 0.00 in0.0 mm 0.00 in0.0 mm 0.00 in0.0 mm
01:10 AM 31.3°F-0.4°C 26.4°F-3.1°C 82% 5.6 mph NNE9.0 kmh NNE 5.9 mph9.5 kmh 29.75 in1007.5 mb 0.00 in0.0 mm 0.00 in0.0 mm 0.00 in0.0 mm
01:20 AM 31.3°F-0.4°C 26.4°F-3.1°C 82% 5.5 mph WSW8.9 kmh WSW 6.6 mph10.6 kmh 29.75 in1007.5 mb 0.00 in0.0 mm 0.00 in0.0 mm 0.00 in0.0 mm
01:30 AM 30.9°F-0.6°C 26.1°F-3.3°C 82% 5.7 mph W9.2 kmh W 6.6 mph10.6 kmh 29.75 in1007.5 mb 0.00 in0.0 mm 0.00 in0.0 mm 0.00 in0.0 mm
01:40 AM 30.7°F-0.7°C 25.9°F-3.4°C 82% 6.0 mph SW9.7 kmh SW 7.6 mph12.2 kmh 29.75 in1007.5 mb 0.00 in0.0 mm 0.00 in0.0 mm 0.00 in0.0 mm
01:50 AM 30.6°F-0.8°C 26.0°F-3.3°C 83% 6.5 mph SW10.5 kmh SW 7.6 mph12.2 kmh 29.76 in1007.8 mb 0.00 in0.0 mm 0.00 in0.0 mm 0.00 in0.0 mm
02:00 AM 30.2°F-1.0°C 25.7°F-3.5°C 83% 6.0 mph SSW9.7 kmh SSW 8.4 mph13.5 kmh 29.77 in1008.1 mb 0.00 in0.0 mm 0.00 in0.0 mm 0.00 in0.0 mm
02:10 AM 30.0°F-1.1°C 25.8°F-3.4°C 84% 6.2 mph SW10.0 kmh SW 8.4 mph13.5 kmh 29.77 in1008.1 mb 0.00 in0.0 mm 0.00 in0.0 mm 0.00 in0.0 mm
02:20 AM 29.8°F-1.2°C 25.9°F-3.4°C 85% 6.1 mph SW9.8 kmh SW 12.5 mph20.1 kmh 29.77 in1008.1 mb 0.00 in0.0 mm 0.00 in0.0 mm 0.00 in0.0 mm
02:30 AM 29.8°F-1.2°C 26.2°F-3.2°C 86% 7.2 mph WSW11.6 kmh WSW 10.1 mph16.3 kmh 29.77 in1008.1 mb 0.00 in0.0 mm 0.00 in0.0 mm 0.00 in0.0 mm
02:40 AM 29.7°F-1.3°C 26.3°F-3.2°C 87% 6.0 mph WSW9.7 kmh WSW 7.6 mph12.2 kmh 29.77 in1008.1 mb 0.00 in0.0 mm 0.00 in0.0 mm 0.00 in0.0 mm
02:50 AM 29.7°F-1.3°C 26.5°F-3.1°C 88% 6.8 mph SSW10.9 kmh SSW 8.4 mph13.5 kmh 29.77 in1008.1 mb 0.00 in0.0 mm 0.00 in0.0 mm 0.00 in0.0 mm
03:00 AM 29.7°F-1.3°C 26.5°F-3.1°C 88% 5.8 mph SW9.3 kmh SW 6.6 mph10.6 kmh 29.77 in1008.1 mb 0.00 in0.0 mm 0.00 in0.0 mm 0.00 in0.0 mm
03:10 AM 29.5°F-1.4°C 26.4°F-3.1°C 88% 5.7 mph WSW9.2 kmh WSW 5.9 mph9.5 kmh 29.77 in1008.1 mb 0.00 in0.0 mm 0.00 in0.0 mm 0.00 in0.0 mm
03:20 AM 29.1°F-1.6°C 26.3°F-3.2°C 89% 6.2 mph WSW10.0 kmh WSW 7.6 mph12.2 kmh 29.78 in1008.5 mb 0.00 in0.0 mm 0.00 in0.0 mm 0.00 in0.0 mm
03:30 AM 28.9°F-1.7°C 26.1°F-3.3°C 89% 6.3 mph SW10.1 kmh SW 7.6 mph12.2 kmh 29.78 in1008.5 mb 0.00 in0.0 mm 0.00 in0.0 mm 0.00 in0.0 mm
03:40 AM 29.1°F-1.6°C 26.6°F-3.0°C 90% 6.4 mph WSW10.3 kmh WSW 7.6 mph12.2 kmh 29.78 in1008.5 mb 0.00 in0.0 mm 0.00 in0.0 mm 0.00 in0.0 mm
03:50 AM 29.1°F-1.6°C 26.6°F-3.0°C 90% 5.9 mph WSW9.5 kmh WSW 7.6 mph12.2 kmh 29.78 in1008.5 mb 0.00 in0.0 mm 0.00 in0.0 mm 0.00 in0.0 mm
04:00 AM 29.1°F-1.6°C 26.6°F-3.0°C 90% 6.3 mph SW10.1 kmh SW 8.4 mph13.5 kmh 29.78 in1008.5 mb 0.00 in0.0 mm 0.00 in0.0 mm 0.00 in0.0 mm
04:10 AM 28.9°F-1.7°C 26.4°F-3.1°C 90% 4.2 mph S6.8 kmh S 4.9 mph7.9 kmh 29.78 in1008.5 mb 0.00 in0.0 mm 0.00 in0.0 mm 0.00 in0.0 mm
04:20 AM 28.8°F-1.8°C 26.2°F-3.2°C 90% 5.0 mph WSW8.0 kmh WSW 6.6 mph10.6 kmh 29.79 in1008.8 mb 0.00 in0.0 mm 0.00 in0.0 mm 0.00 in0.0 mm
04:30 AM 28.6°F-1.9°C 26.0°F-3.3°C 90% 4.3 mph S6.9 kmh S 6.6 mph10.6 kmh 29.78 in1008.5 mb 0.00 in0.0 mm 0.00 in0.0 mm 0.00 in0.0 mm
04:40 AM 28.6°F-1.9°C 26.3°F-3.2°C 91% 4.4 mph W7.1 kmh W 4.9 mph7.9 kmh 29.79 in1008.8 mb 0.00 in0.0 mm 0.00 in0.0 mm 0.00 in0.0 mm
04:50 AM 28.9°F-1.7°C 26.9°F-2.8°C 92% 5.8 mph SW9.3 kmh SW 6.6 mph10.6 kmh 29.79 in1008.8 mb 0.00 in0.0 mm 0.00 in0.0 mm 0.00 in0.0 mm
05:00 AM 29.1°F-1.6°C 27.1°F-2.7°C 92% 4.6 mph SW7.4 kmh SW 4.9 mph7.9 kmh 29.79 in1008.8 mb 0.00 in0.0 mm 0.00 in0.0 mm 0.00 in0.0 mm
05:10 AM 29.1°F-1.6°C 27.1°F-2.7°C 92% 5.6 mph SW9.0 kmh SW 6.6 mph10.6 kmh 29.79 in1008.8 mb 0.00 in0.0 mm 0.00 in0.0 mm 0.00 in0.0 mm
05:20 AM 29.3°F-1.5°C 27.0°F-2.8°C 91% 3.9 mph W6.3 kmh W 6.6 mph10.6 kmh 29.80 in1009.1 mb 0.00 in0.0 mm 0.00 in0.0 mm 0.00 in0.0 mm
05:30 AM 29.1°F-1.6°C 26.8°F-2.9°C 91% 4.4 mph S7.1 kmh S 4.9 mph7.9 kmh 29.79 in1008.8 mb 0.00 in0.0 mm 0.00 in0.0 mm 0.00 in0.0 mm
05:40 AM 29.1°F-1.6°C 26.8°F-2.9°C 91% 5.1 mph WSW8.2 kmh WSW 4.9 mph7.9 kmh 29.79 in1008.8 mb 0.00 in0.0 mm 0.00 in0.0 mm 0.00 in0.0 mm
05:50 AM 28.9°F-1.7°C 26.6°F-3.0°C 91% 4.7 mph WSW7.6 kmh WSW 6.6 mph10.6 kmh 29.80 in1009.1 mb 0.00 in0.0 mm 0.00 in0.0 mm 0.00 in0.0 mm
06:00 AM 28.8°F-1.8°C 26.7°F-2.9°C 92% 3.9 mph WSW6.3 kmh WSW 4.2 mph6.8 kmh 29.79 in1008.8 mb 0.00 in0.0 mm 0.00 in0.0 mm 0.00 in0.0 mm
06:10 AM 28.8°F-1.8°C 26.7°F-2.9°C 92% 5.1 mph WSW8.2 kmh WSW 8.4 mph13.5 kmh 29.80 in1009.1 mb 0.00 in0.0 mm 0.00 in0.0 mm 0.00 in0.0 mm
06:20 AM 28.8°F-1.8°C 26.7°F-2.9°C 92% 6.8 mph WSW10.9 kmh WSW 7.6 mph12.2 kmh 29.80 in1009.1 mb 0.00 in0.0 mm 0.00 in0.0 mm 0.00 in0.0 mm
06:30 AM 28.9°F-1.7°C 26.9°F-2.8°C 92% 7.0 mph SW11.3 kmh SW 10.1 mph16.3 kmh 29.80 in1009.1 mb 0.00 in0.0 mm 0.00 in0.0 mm 0.00 in0.0 mm
06:40 AM 28.9°F-1.7°C 26.9°F-2.8°C 92% 6.5 mph SW10.5 kmh SW 10.1 mph16.3 kmh 29.80 in1009.1 mb 0.00 in0.0 mm 0.00 in0.0 mm 0.00 in0.0 mm
06:50 AM 28.9°F-1.7°C 26.9°F-2.8°C 92% 4.4 mph SW7.1 kmh SW 5.9 mph9.5 kmh 29.81 in1009.5 mb 0.00 in0.0 mm 0.00 in0.0 mm 0.00 in0.0 mm
07:00 AM 28.8°F-1.8°C 26.7°F-2.9°C 92% 5.6 mph WNW9.0 kmh WNW 5.9 mph9.5 kmh 29.81 in1009.5 mb 0.00 in0.0 mm 0.00 in0.0 mm 0.00 in0.0 mm
07:10 AM 28.8°F-1.8°C 26.7°F-2.9°C 92% 5.9 mph SSW9.5 kmh SSW 6.6 mph10.6 kmh 29.81 in1009.5 mb 0.00 in0.0 mm 0.00 in0.0 mm 0.00 in0.0 mm
07:20 AM 28.6°F-1.9°C 26.6°F-3.0°C 92% 5.2 mph SW8.4 kmh SW 8.4 mph13.5 kmh 29.81 in1009.5 mb 0.00 in0.0 mm 0.00 in0.0 mm 0.00 in0.0 mm
07:30 AM 28.8°F-1.8°C 26.7°F-2.9°C 92% 5.6 mph SW9.0 kmh SW 6.6 mph10.6 kmh 29.82 in1009.8 mb 0.00 in0.0 mm 0.00 in0.0 mm 0.00 in0.0 mm
07:40 AM 28.8°F-1.8°C 26.7°F-2.9°C 92% 6.2 mph WSW10.0 kmh WSW 8.4 mph13.5 kmh 29.83 in1010.2 mb 0.00 in0.0 mm 0.00 in0.0 mm 0.00 in0.0 mm
07:50 AM 28.8°F-1.8°C 26.7°F-2.9°C 92% 4.7 mph S7.6 kmh S 5.9 mph9.5 kmh 29.83 in1010.2 mb 0.00 in0.0 mm 0.00 in0.0 mm 0.00 in0.0 mm
08:00 AM 28.8°F-1.8°C 26.7°F-2.9°C 92% 4.7 mph SSW7.6 kmh SSW 5.9 mph9.5 kmh 29.82 in1009.8 mb 0.00 in0.0 mm 0.00 in0.0 mm 0.00 in0.0 mm
08:10 AM 28.8°F-1.8°C 26.7°F-2.9°C 92% 4.7 mph S7.6 kmh S 6.6 mph10.6 kmh 29.83 in1010.2 mb 0.00 in0.0 mm 0.00 in0.0 mm 0.00 in0.0 mm
08:20 AM 29.1°F-1.6°C 27.1°F-2.7°C 92% 5.0 mph NNE8.0 kmh NNE 6.6 mph10.6 kmh 29.83 in1010.2 mb 0.00 in0.0 mm 0.00 in0.0 mm 0.00 in0.0 mm
08:30 AM 29.3°F-1.5°C 27.3°F-2.6°C 92% 4.0 mph S6.4 kmh S 6.6 mph10.6 kmh 29.84 in1010.5 mb 0.00 in0.0 mm 0.00 in0.0 mm 0.00 in0.0 mm
08:40 AM 29.5°F-1.4°C 27.4°F-2.6°C 92% 5.5 mph WSW8.9 kmh WSW 8.4 mph13.5 kmh 29.84 in1010.5 mb 0.00 in0.0 mm 0.00 in0.0 mm 0.00 in0.0 mm
08:50 AM 29.8°F-1.2°C 27.8°F-2.3°C 92% 5.5 mph SSW8.9 kmh SSW 8.4 mph13.5 kmh 29.84 in1010.5 mb 0.00 in0.0 mm 0.00 in0.0 mm 0.00 in0.0 mm
09:00 AM 30.4°F-0.9°C 28.3°F-2.1°C 92% 5.3 mph W8.5 kmh W 5.9 mph9.5 kmh 29.84 in1010.5 mb 0.00 in0.0 mm 0.00 in0.0 mm 0.00 in0.0 mm
09:10 AM 30.9°F-0.6°C 28.9°F-1.7°C 92% 7.3 mph W11.7 kmh W 8.4 mph13.5 kmh 29.85 in1010.8 mb 0.00 in0.0 mm 0.00 in0.0 mm 0.00 in0.0 mm
09:20 AM 31.5°F-0.3°C 28.9°F-1.7°C 90% 6.4 mph SSW10.3 kmh SSW 8.4 mph13.5 kmh 29.85 in1010.8 mb 0.00 in0.0 mm 0.00 in0.0 mm 0.00 in0.0 mm
09:30 AM 31.8°F-0.1°C 28.9°F-1.7°C 89% 5.9 mph S9.5 kmh S 6.6 mph10.6 kmh 29.85 in1010.8 mb 0.00 in0.0 mm 0.00 in0.0 mm 0.00 in0.0 mm
09:40 AM 32.9°F0.5°C 29.7°F-1.3°C 88% 6.2 mph SSW10.0 kmh SSW 6.6 mph10.6 kmh 29.85 in1010.8 mb 0.00 in0.0 mm 0.00 in0.0 mm 0.00 in0.0 mm
09:50 AM 34.5°F1.4°C 31.0°F-0.6°C 87% 5.7 mph SSW9.2 kmh SSW 6.6 mph10.6 kmh 29.85 in1010.8 mb 0.00 in0.0 mm 0.00 in0.0 mm 0.00 in0.0 mm
10:00 AM 35.8°F2.1°C 31.4°F-0.3°C 84% 6.1 mph SW9.8 kmh SW 8.4 mph13.5 kmh 29.86 in1011.2 mb 0.00 in0.0 mm 0.00 in0.0 mm 0.00 in0.0 mm
10:10 AM 36.7°F2.6°C 31.4°F-0.3°C 81% 7.3 mph SW11.7 kmh SW 10.8 mph17.4 kmh 29.85 in1010.8 mb 0.00 in0.0 mm 0.00 in0.0 mm 0.00 in0.0 mm
10:20 AM 37.4°F3.0°C 31.8°F-0.1°C 80% 7.2 mph SW11.6 kmh SW 10.8 mph17.4 kmh 29.85 in1010.8 mb 0.00 in0.0 mm 0.00 in0.0 mm 0.00 in0.0 mm
10:30 AM 38.1°F3.4°C 31.5°F-0.3°C 77% 5.8 mph WSW9.3 kmh WSW 7.6 mph12.2 kmh 29.85 in1010.8 mb 0.00 in0.0 mm 0.00 in0.0 mm 0.00 in0.0 mm
10:40 AM 38.5°F3.6°C 31.6°F-0.2°C 76% 6.3 mph W10.1 kmh W 8.4 mph13.5 kmh 29.85 in1010.8 mb 0.00 in0.0 mm 0.00 in0.0 mm 0.00 in0.0 mm
10:50 AM 39.4°F4.1°C 32.4°F0.2°C 76% 6.5 mph WSW10.5 kmh WSW 6.6 mph10.6 kmh 29.85 in1010.8 mb 0.00 in0.0 mm 0.00 in0.0 mm 0.00 in0.0 mm
11:00 AM 39.9°F4.4°C 32.6°F0.3°C 75% 6.3 mph WSW10.1 kmh WSW 9.1 mph14.6 kmh 29.85 in1010.8 mb 0.00 in0.0 mm 0.00 in0.0 mm 0.00 in0.0 mm
11:10 AM 40.1°F4.5°C 32.5°F0.3°C 74% 6.2 mph WSW10.0 kmh WSW 5.9 mph9.5 kmh 29.86 in1011.2 mb 0.00 in0.0 mm 0.00 in0.0 mm 0.00 in0.0 mm
11:20 AM 39.0°F3.9°C 31.1°F-0.5°C 73% 8.5 mph WSW13.7 kmh WSW 11.8 mph19.0 kmh 29.86 in1011.2 mb 0.00 in0.0 mm 0.00 in0.0 mm 0.00 in0.0 mm
11:30 AM 39.2°F4.0°C 31.6°F-0.2°C 74% 8.6 mph WSW13.8 kmh WSW 8.4 mph13.5 kmh 29.86 in1011.2 mb 0.00 in0.0 mm 0.00 in0.0 mm 0.00 in0.0 mm
11:40 AM 39.9°F4.4°C 32.3°F0.2°C 74% 7.9 mph WSW12.7 kmh WSW 10.8 mph17.4 kmh 29.85 in1010.8 mb 0.00 in0.0 mm 0.00 in0.0 mm 0.00 in0.0 mm
11:50 AM 40.1°F4.5°C 32.1°F0.1°C 73% 7.9 mph WNW12.7 kmh WNW 10.8 mph17.4 kmh 29.86 in1011.2 mb 0.00 in0.0 mm 0.00 in0.0 mm 0.00 in0.0 mm
12:00 PM 40.1°F4.5°C 32.1°F0.1°C 73% 7.8 mph WSW12.6 kmh WSW 9.1 mph14.6 kmh 29.86 in1011.2 mb 0.00 in0.0 mm 0.00 in0.0 mm 0.00 in0.0 mm
12:10 PM 40.1°F4.5°C 32.1°F0.1°C 73% 9.8 mph SW15.8 kmh SW 11.8 mph19.0 kmh 29.85 in1010.8 mb 0.00 in0.0 mm 0.00 in0.0 mm 0.00 in0.0 mm
12:20 PM 40.1°F4.5°C 32.1°F0.1°C 73% 8.3 mph WSW13.4 kmh WSW 10.8 mph17.4 kmh 29.85 in1010.8 mb 0.00 in0.0 mm 0.00 in0.0 mm 0.00 in0.0 mm
12:30 PM 40.5°F4.7°C 32.5°F0.3°C 73% 6.8 mph SW10.9 kmh SW 8.4 mph13.5 kmh 29.85 in1010.8 mb 0.00 in0.0 mm 0.00 in0.0 mm 0.00 in0.0 mm
12:40 PM 40.1°F4.5°C 32.1°F0.1°C 73% 8.6 mph SSW13.8 kmh SSW 8.4 mph13.5 kmh 29.84 in1010.5 mb 0.00 in0.0 mm 0.00 in0.0 mm 0.00 in0.0 mm
12:50 PM 40.6°F4.8°C 32.7°F0.4°C 73% 8.3 mph SW13.4 kmh SW 10.8 mph17.4 kmh 29.84 in1010.5 mb 0.00 in0.0 mm 0.00 in0.0 mm 0.00 in0.0 mm
01:00 PM 41.2°F5.1°C 32.8°F0.4°C 72% 8.7 mph WNW14.0 kmh WNW 11.8 mph19.0 kmh 29.84 in1010.5 mb 0.00 in0.0 mm 0.00 in0.0 mm 0.00 in0.0 mm
01:10 PM 41.5°F5.3°C 33.2°F0.7°C 72% 4.4 mph SW7.1 kmh SW 6.6 mph10.6 kmh 29.84 in1010.5 mb 0.00 in0.0 mm 0.00 in0.0 mm 0.00 in0.0 mm
01:20 PM 41.5°F5.3°C 33.2°F0.7°C 72% 7.5 mph W12.1 kmh W 10.8 mph17.4 kmh 29.84 in1010.5 mb 0.00 in0.0 mm 0.00 in0.0 mm 0.00 in0.0 mm
01:30 PM 41.4°F5.2°C 32.7°F0.4°C 71% 10.1 mph S16.3 kmh S 10.8 mph17.4 kmh 29.84 in1010.5 mb 0.00 in0.0 mm 0.00 in0.0 mm 0.00 in0.0 mm
01:40 PM 41.2°F5.1°C 32.1°F0.1°C 70% 9.8 mph SW15.8 kmh SW 13.3 mph21.4 kmh 29.83 in1010.2 mb 0.00 in0.0 mm 0.00 in0.0 mm 0.00 in0.0 mm
01:50 PM 40.8°F4.9°C 32.5°F0.3°C 72% 8.1 mph SW13.0 kmh SW 10.8 mph17.4 kmh 29.83 in1010.2 mb 0.00 in0.0 mm 0.00 in0.0 mm 0.00 in0.0 mm
02:00 PM 40.8°F4.9°C 32.5°F0.3°C 72% 6.3 mph W10.1 kmh W 10.1 mph16.3 kmh 29.84 in1010.5 mb 0.00 in0.0 mm 0.00 in0.0 mm 0.00 in0.0 mm
02:10 PM 40.5°F4.7°C 32.1°F0.1°C 72% 6.8 mph SW10.9 kmh SW 8.4 mph13.5 kmh 29.83 in1010.2 mb 0.00 in0.0 mm 0.00 in0.0 mm 0.00 in0.0 mm
02:20 PM 40.5°F4.7°C 32.1°F0.1°C 72% 8.8 mph S14.2 kmh S 13.3 mph21.4 kmh 29.83 in1010.2 mb 0.00 in0.0 mm 0.00 in0.0 mm 0.00 in0.0 mm
02:30 PM 40.8°F4.9°C 32.5°F0.3°C 72% 7.5 mph SW12.1 kmh SW 8.4 mph13.5 kmh 29.83 in1010.2 mb 0.00 in0.0 mm 0.00 in0.0 mm 0.00 in0.0 mm
02:40 PM 40.5°F4.7°C 32.1°F0.1°C 72% 7.8 mph WSW12.6 kmh WSW 9.1 mph14.6 kmh 29.82 in1009.8 mb 0.00 in0.0 mm 0.00 in0.0 mm 0.00 in0.0 mm
02:50 PM 40.3°F4.6°C 31.6°F-0.2°C 71% 7.6 mph WSW12.2 kmh WSW 9.1 mph14.6 kmh 29.82 in1009.8 mb 0.00 in0.0 mm 0.00 in0.0 mm 0.00 in0.0 mm
03:00 PM 40.3°F4.6°C 32.0°F0.0°C 72% 8.7 mph WSW14.0 kmh WSW 10.1 mph16.3 kmh 29.83 in1010.2 mb 0.00 in0.0 mm 0.00 in0.0 mm 0.00 in0.0 mm
03:10 PM 40.5°F4.7°C 32.1°F0.1°C 72% 9.5 mph S15.3 kmh S 8.4 mph13.5 kmh 29.82 in1009.8 mb 0.00 in0.0 mm 0.00 in0.0 mm 0.00 in0.0 mm
03:20 PM 40.3°F4.6°C 32.0°F0.0°C 72% 8.4 mph SW13.5 kmh SW 10.1 mph16.3 kmh 29.82 in1009.8 mb 0.00 in0.0 mm 0.00 in0.0 mm 0.00 in0.0 mm
03:30 PM 40.3°F4.6°C 32.0°F0.0°C 72% 8.0 mph SW12.9 kmh SW 9.1 mph14.6 kmh 29.82 in1009.8 mb 0.00 in0.0 mm 0.00 in0.0 mm 0.00 in0.0 mm
03:40 PM 40.3°F4.6°C 32.0°F0.0°C 72% 8.5 mph S13.7 kmh S 10.8 mph17.4 kmh 29.82 in1009.8 mb 0.00 in0.0 mm 0.00 in0.0 mm 0.00 in0.0 mm
03:50 PM 40.1°F4.5°C 31.8°F-0.1°C 72% 7.3 mph SW11.7 kmh SW 8.4 mph13.5 kmh 29.82 in1009.8 mb 0.00 in0.0 mm 0.00 in0.0 mm 0.00 in0.0 mm
04:00 PM 39.9°F4.4°C 32.0°F0.0°C 73% 5.8 mph WSW9.3 kmh WSW 6.6 mph10.6 kmh 29.82 in1009.8 mb 0.00 in0.0 mm 0.00 in0.0 mm 0.00 in0.0 mm
04:10 PM 39.6°F4.2°C 31.6°F-0.2°C 73% 7.5 mph SSW12.1 kmh SSW 9.1 mph14.6 kmh 29.82 in1009.8 mb 0.00 in0.0 mm 0.00 in0.0 mm 0.00 in0.0 mm
04:20 PM 39.0°F3.9°C 31.4°F-0.3°C 74% 5.5 mph S8.9 kmh S 6.6 mph10.6 kmh 29.82 in1009.8 mb 0.00 in0.0 mm 0.00 in0.0 mm 0.00 in0.0 mm
04:30 PM 38.7°F3.7°C 31.4°F-0.3°C 75% 4.0 mph SW6.4 kmh SW 4.9 mph7.9 kmh 29.81 in1009.5 mb 0.00 in0.0 mm 0.00 in0.0 mm 0.00 in0.0 mm
04:40 PM 38.1°F3.4°C 31.2°F-0.4°C 76% 5.0 mph SSW8.0 kmh SSW 6.6 mph10.6 kmh 29.82 in1009.8 mb 0.00 in0.0 mm 0.00 in0.0 mm 0.00 in0.0 mm
04:50 PM 37.8°F3.2°C 31.2°F-0.4°C 77% 5.7 mph SW9.2 kmh SW 6.6 mph10.6 kmh 29.82 in1009.8 mb 0.00 in0.0 mm 0.00 in0.0 mm 0.00 in0.0 mm
05:00 PM 37.2°F2.9°C 31.0°F-0.6°C 78% 6.0 mph S9.7 kmh S 6.6 mph10.6 kmh 29.81 in1009.5 mb 0.00 in0.0 mm 0.00 in0.0 mm 0.00 in0.0 mm
05:10 PM 37.2°F2.9°C 31.6°F-0.2°C 80% 7.6 mph SW12.2 kmh SW 9.1 mph14.6 kmh 29.81 in1009.5 mb 0.00 in0.0 mm 0.00 in0.0 mm 0.00 in0.0 mm
05:20 PM 37.2°F2.9°C 31.9°F-0.1°C 81% 8.8 mph S14.2 kmh S 8.4 mph13.5 kmh 29.81 in1009.5 mb 0.00 in0.0 mm 0.00 in0.0 mm 0.00 in0.0 mm
05:30 PM 37.0°F2.8°C 31.8°F-0.1°C 81% 8.1 mph WSW13.0 kmh WSW 9.1 mph14.6 kmh 29.81 in1009.5 mb 0.00 in0.0 mm 0.00 in0.0 mm 0.00 in0.0 mm
05:40 PM 36.7°F2.6°C 31.1°F-0.5°C 80% 6.8 mph WSW10.9 kmh WSW 8.4 mph13.5 kmh 29.81 in1009.5 mb 0.00 in0.0 mm 0.00 in0.0 mm 0.00 in0.0 mm
05:50 PM 36.3°F2.4°C 30.7°F-0.7°C 80% 6.6 mph SW10.6 kmh SW 8.4 mph13.5 kmh 29.81 in1009.5 mb 0.00 in0.0 mm 0.00 in0.0 mm 0.00 in0.0 mm
06:00 PM 36.0°F2.2°C 31.0°F-0.6°C 82% 6.1 mph SW9.8 kmh SW 6.6 mph10.6 kmh 29.81 in1009.5 mb 0.00 in0.0 mm 0.00 in0.0 mm 0.00 in0.0 mm
06:10 PM 36.0°F2.2°C 31.0°F-0.6°C 82% 7.1 mph S11.4 kmh S 8.4 mph13.5 kmh 29.80 in1009.1 mb 0.00 in0.0 mm 0.00 in0.0 mm 0.00 in0.0 mm
06:20 PM 36.0°F2.2°C 31.0°F-0.6°C 82% 10.7 mph SW17.2 kmh SW 12.5 mph20.1 kmh 29.80 in1009.1 mb 0.00 in0.0 mm 0.00 in0.0 mm 0.00 in0.0 mm
06:30 PM 35.8°F2.1°C 30.8°F-0.7°C 82% 8.3 mph SSW13.4 kmh SSW 11.8 mph19.0 kmh 29.80 in1009.1 mb 0.00 in0.0 mm 0.00 in0.0 mm 0.00 in0.0 mm
06:40 PM 35.6°F2.0°C 30.6°F-0.8°C 82% 8.1 mph NW13.0 kmh NW 8.4 mph13.5 kmh 29.80 in1009.1 mb 0.00 in0.0 mm 0.00 in0.0 mm 0.00 in0.0 mm
06:50 PM 35.4°F1.9°C 30.5°F-0.8°C 82% 9.2 mph SW14.8 kmh SW 11.8 mph19.0 kmh 29.80 in1009.1 mb 0.00 in0.0 mm 0.00 in0.0 mm 0.00 in0.0 mm
07:00 PM 35.2°F1.8°C 30.3°F-0.9°C 82% 9.2 mph WSW14.8 kmh WSW 10.1 mph16.3 kmh 29.80 in1009.1 mb 0.00 in0.0 mm 0.00 in0.0 mm 0.00 in0.0 mm
07:10 PM 35.1°F1.7°C 30.1°F-1.1°C 82% 8.1 mph SW13.0 kmh SW 9.1 mph14.6 kmh 29.79 in1008.8 mb 0.00 in0.0 mm 0.00 in0.0 mm 0.00 in0.0 mm
07:20 PM 34.9°F1.6°C 29.9°F-1.2°C 82% 8.0 mph S12.9 kmh S 9.1 mph14.6 kmh 29.80 in1009.1 mb 0.00 in0.0 mm 0.00 in0.0 mm 0.00 in0.0 mm
07:30 PM 34.9°F1.6°C 30.2°F-1.0°C 83% 8.1 mph SW13.0 kmh SW 9.1 mph14.6 kmh 29.80 in1009.1 mb 0.00 in0.0 mm 0.00 in0.0 mm 0.00 in0.0 mm
07:40 PM 34.7°F1.5°C 30.1°F-1.1°C 83% 8.7 mph SSW14.0 kmh SSW 9.1 mph14.6 kmh 29.79 in1008.8 mb 0.00 in0.0 mm 0.00 in0.0 mm 0.00 in0.0 mm
07:50 PM 34.7°F1.5°C 30.1°F-1.1°C 83% 9.5 mph S15.3 kmh S 9.1 mph14.6 kmh 29.79 in1008.8 mb 0.00 in0.0 mm 0.00 in0.0 mm 0.00 in0.0 mm
08:00 PM 34.3°F1.3°C 29.7°F-1.3°C 83% 8.2 mph SSW13.2 kmh SSW 10.8 mph17.4 kmh 29.79 in1008.8 mb 0.00 in0.0 mm 0.00 in0.0 mm 0.00 in0.0 mm
08:10 PM 34.2°F1.2°C 29.8°F-1.2°C 84% 7.9 mph SSW12.7 kmh SSW 12.5 mph20.1 kmh 29.78 in1008.5 mb 0.00 in0.0 mm 0.00 in0.0 mm 0.00 in0.0 mm
08:20 PM 33.6°F0.9°C 29.6°F-1.3°C 85% 8.6 mph SW13.8 kmh SW 9.1 mph14.6 kmh 29.78 in1008.5 mb 0.00 in0.0 mm 0.00 in0.0 mm 0.00 in0.0 mm
08:30 PM 33.8°F1.0°C 30.1°F-1.1°C 86% 9.2 mph S14.8 kmh S 10.8 mph17.4 kmh 29.78 in1008.5 mb 0.00 in0.0 mm 0.00 in0.0 mm 0.00 in0.0 mm
08:40 PM 34.0°F1.1°C 30.2°F-1.0°C 86% 11.2 mph SE18.0 kmh SE 11.8 mph19.0 kmh 29.78 in1008.5 mb 0.00 in0.0 mm 0.00 in0.0 mm 0.00 in0.0 mm
08:50 PM 34.0°F1.1°C 30.2°F-1.0°C 86% 9.1 mph SSE14.6 kmh SSE 10.1 mph16.3 kmh 29.78 in1008.5 mb 0.00 in0.0 mm 0.00 in0.0 mm 0.00 in0.0 mm
09:00 PM 33.6°F0.9°C 29.9°F-1.2°C 86% 9.9 mph SSE15.9 kmh SSE 10.1 mph16.3 kmh 29.78 in1008.5 mb 0.00 in0.0 mm 0.00 in0.0 mm 0.00 in0.0 mm
09:10 PM 33.6°F0.9°C 30.2°F-1.0°C 87% 10.0 mph S16.1 kmh S 10.1 mph16.3 kmh 29.78 in1008.5 mb 0.00 in0.0 mm 0.00 in0.0 mm 0.00 in0.0 mm
09:20 PM 33.6°F0.9°C 29.9°F-1.2°C 86% 9.6 mph S15.4 kmh S 9.1 mph14.6 kmh 29.77 in1008.1 mb 0.00 in0.0 mm 0.00 in0.0 mm 0.00 in0.0 mm
09:30 PM 33.6°F0.9°C 29.9°F-1.2°C 86% 9.6 mph S15.4 kmh S 10.1 mph16.3 kmh 29.77 in1008.1 mb 0.00 in0.0 mm 0.00 in0.0 mm 0.00 in0.0 mm
09:40 PM 33.6°F0.9°C 29.9°F-1.2°C 86% 8.9 mph S14.3 kmh S 10.1 mph16.3 kmh 29.76 in1007.8 mb 0.00 in0.0 mm 0.00 in0.0 mm 0.00 in0.0 mm
09:50 PM 33.4°F0.8°C 29.7°F-1.3°C 86% 8.8 mph S14.2 kmh S 9.1 mph14.6 kmh 29.75 in1007.5 mb 0.00 in0.0 mm 0.00 in0.0 mm 0.00 in0.0 mm
10:00 PM 33.3°F0.7°C 29.8°F-1.2°C 87% 11.2 mph S18.0 kmh S 10.8 mph17.4 kmh 29.75 in1007.5 mb 0.00 in0.0 mm 0.00 in0.0 mm 0.00 in0.0 mm
10:10 PM 33.4°F0.8°C 29.7°F-1.3°C 86% 10.8 mph S17.4 kmh S 13.3 mph21.4 kmh 29.75 in1007.5 mb 0.00 in0.0 mm 0.00 in0.0 mm 0.00 in0.0 mm
10:20 PM 33.6°F0.9°C 30.2°F-1.0°C 87% 10.4 mph S16.7 kmh S 10.8 mph17.4 kmh 29.75 in1007.5 mb 0.00 in0.0 mm 0.00 in0.0 mm 0.00 in0.0 mm
10:30 PM 33.6°F0.9°C 29.9°F-1.2°C 86% 11.3 mph S18.2 kmh S 12.5 mph20.1 kmh 29.75 in1007.5 mb 0.00 in0.0 mm 0.00 in0.0 mm 0.00 in0.0 mm
10:40 PM 33.6°F0.9°C 29.9°F-1.2°C 86% 11.7 mph SSE18.8 kmh SSE 12.5 mph20.1 kmh 29.74 in1007.1 mb 0.00 in0.0 mm 0.00 in0.0 mm 0.00 in0.0 mm
10:50 PM 33.8°F1.0°C 29.8°F-1.2°C 85% 11.9 mph S19.2 kmh S 12.5 mph20.1 kmh 29.74 in1007.1 mb 0.00 in0.0 mm 0.00 in0.0 mm 0.00 in0.0 mm
11:00 PM 33.8°F1.0°C 29.8°F-1.2°C 85% 12.8 mph SSE20.6 kmh SSE 16.0 mph25.7 kmh 29.73 in1006.8 mb 0.00 in0.0 mm 0.00 in0.0 mm 0.00 in0.0 mm
11:10 PM 33.6°F0.9°C 29.6°F-1.3°C 85% 15.7 mph S25.3 kmh S 16.0 mph25.7 kmh 29.73 in1006.8 mb 0.00 in0.0 mm 0.00 in0.0 mm 0.00 in0.0 mm
11:20 PM 33.6°F0.9°C 29.6°F-1.3°C 85% 11.3 mph S18.2 kmh S 10.8 mph17.4 kmh 29.72 in1006.4 mb 0.00 in0.0 mm 0.00 in0.0 mm 0.00 in0.0 mm
11:30 PM 33.6°F0.9°C 29.6°F-1.3°C 85% 11.8 mph SSE19.0 kmh SSE 11.8 mph19.0 kmh 29.72 in1006.4 mb 0.00 in0.0 mm 0.00 in0.0 mm 0.00 in0.0 mm
11:40 PM 33.6°F0.9°C 29.6°F-1.3°C 85% 11.7 mph SSE18.8 kmh SSE 10.8 mph17.4 kmh 29.72 in1006.4 mb 0.00 in0.0 mm 0.00 in0.0 mm 0.00 in0.0 mm
11:50 PM 33.4°F0.8°C 29.4°F-1.4°C 85% 10.5 mph S16.9 kmh S 10.1 mph16.3 kmh 29.72 in1006.4 mb 0.00 in0.0 mm 0.00 in0.0 mm 0.00 in0.0 mm